Huvudsida
METAR-TAF:

METAR-TAF

Flygplatser :

Caracas, Venezuela

latitud: 10-36N, longitud: 066-59W, höjd: 43 m

Aktuellt väderrapport

Denna rapport gjordes för 1 timme och 5 minuter sedan, klockan 08:00 UTC
Stilla vind
Temperatur 25°C
Fuktighet 89%
Tryck 1011 hPa
Sikt 10 km eller mer
Spridda moln på en höjd av 1600 ft

METAR: SVMI 070800Z 00000KT 9999 SCT016 25/23 Q1011

Tid: 05:05 (09:05 UTC)

Väderprognos

Denna rapport gjordes för 5 timmar och 5 minuter sedan, klockan 04:00 UTC
Prognos gäller från 07 kl. 06 UTC till 08 kl. 06 UTC
Vind 3 kt från ost
Sikt 10 km eller mer
Spridda moln på en höjd av 1600 ft
Blir
från 07 kl. 06 UTC till 07 kl. 10 UTC
Vind kt från nord
Få moln på en höjd av 1600 ft
Spridda moln på en höjd av 10000 ft

TAF: SVMI 070400Z 0706/0806 09003KT 9999 SCT016 TX30/18Z TN25/08Z BECMG 0706/0710 00000KT FEW016 SCT100

Aktuella väderrapporter och prognoser från 4000 flygplatser (METAR- och TAF-rapporter).

De tillgängliga stationerna syns som gula och röda prickar på kartan.

För musen över prickarna för att se namnen på stationerna.

Klicka sedan för att få väderrapporter och prognoser.

För att ändra kartan: Klicka på de gröna knapparna med ett svart kors på för att zooma in; den gröna knappen med ett streck på för att zooma ut; eller på de gröna pilarna för angränsande kartor.


METAR-TAF: